Time;durP1;ratioP1;P1;durP2;ratioP2;P2;SDS_P1;SDS_P2;PMS_P1;PMS_P2;Temp;Humidity;BMP_temperature;BMP_pressure;BME280_temperature;BME280_humidity;BME280_pressure;Samples;Min_cycle;Max_cycle;Signal;HPM_P1;HPM_P2
2023/10/03 00:01:17;;;;;;;;;;;;;;;19.26;43.10;100513.44;5112347;28;20418;-77
2023/10/03 00:03:43;;;;;;;;;;;;;;;19.23;42.85;100513.06;5112152;28;19926;-77
2023/10/03 00:06:09;;;;;;;;;;;;;;;19.14;44.17;100504.44;5112409;28;19915;-78
2023/10/03 00:08:34;;;;;;;;;;;;;;;18.96;44.37;100517.66;5112422;28;19929;-77
2023/10/03 00:11:00;;;;;;;;;;;;;;;18.83;44.49;100501.63;5112052;28;19943;-78
2023/10/03 00:13:25;;;;;;;;;;;;;;;18.72;44.98;100511.09;5112180;28;20003;-77
2023/10/03 00:15:51;;;;;;;;;;;;;;;18.64;44.09;100501.44;5111980;28;20288;-78
2023/10/03 00:18:16;;;;;;;;;;;;;;;18.61;44.03;100503.69;5111962;28;19911;-78
2023/10/03 00:20:41;;;;;;;;;;;;;;;18.56;44.92;100508.78;5112110;28;19912;-78
2023/10/03 00:23:07;;;;;;;;;;;;;;;18.50;44.97;100502.41;5112072;28;19973;-77
2023/10/03 00:25:34;;;;;;;;;;;;;;;18.54;43.92;100510.84;5112155;28;19985;-77
2023/10/03 00:27:59;;;;;;;;;;;;;;;18.59;44.03;100503.88;5112123;28;19912;-77
2023/10/03 00:30:26;;;;;;;;;;;;;;;18.61;44.95;100509.88;5093850;28;19912;-78
2023/10/03 00:32:52;;;;;;;;;;;;;;;18.55;44.63;100499.94;5111935;28;19937;-77
2023/10/03 00:35:19;;;;;;;;;;;;;;;18.50;44.59;100504.28;5093714;28;19912;-77
2023/10/03 00:37:46;;;;;;;;;;;;;;;18.46;44.80;100511.88;5112091;28;19926;-77
2023/10/03 00:42:46;;;;;;;;;;;;;;;18.39;44.33;100509.19;5111907;28;19916;-77
2023/10/03 00:45:14;;;;;;;;;;;;;;;18.36;44.57;100506.94;5093498;28;20344;-77
2023/10/03 00:47:39;;;;;;;;;;;;;;;18.34;45.39;100503.66;5111979;28;19908;-77
2023/10/03 00:50:06;;;;;;;;;;;;;;;18.38;45.32;100507.56;5111897;28;19919;-77
2023/10/03 00:52:31;;;;;;;;;;;;;;;18.38;45.50;100507.56;5093487;28;19912;-78
2023/10/03 00:55:00;;;;;;;;;;;;;;;18.33;45.25;100504.69;5111806;28;19915;-77
2023/10/03 00:57:26;;;;;;;;;;;;;;;18.26;44.40;100498.50;5111862;28;19934;-77
2023/10/03 00:59:53;;;;;;;;;;;;;;;18.21;45.58;100503.66;5112184;28;20364;-77
2023/10/03 01:02:21;;;;;;;;;;;;;;;18.14;46.22;100502.81;5093373;28;19920;-77
2023/10/03 01:04:46;;;;;;;;;;;;;;;18.09;45.75;100508.78;5111828;28;19973;-77
2023/10/03 01:07:11;;;;;;;;;;;;;;;18.06;46.10;100505.69;5112021;28;19928;-77
2023/10/03 01:09:37;;;;;;;;;;;;;;;18.12;44.93;100507.53;5112451;28;19919;-77
2023/10/03 01:12:02;;;;;;;;;;;;;;;18.08;45.81;100511.66;5115443;28;19912;-77
2023/10/03 01:14:27;;;;;;;;;;;;;;;18.05;45.38;100504.84;5115485;28;20377;-77
2023/10/03 01:16:53;;;;;;;;;;;;;;;18.00;45.96;100504.66;5115323;28;19912;-77
2023/10/03 01:19:24;;;;;;;;;;;;;;;17.96;45.76;100506.06;5096899;28;19911;-77
2023/10/03 01:21:50;;;;;;;;;;;;;;;17.90;45.30;100506.06;5115401;28;19911;-77
2023/10/03 01:24:20;;;;;;;;;;;;;;;17.74;45.92;100517.91;5115078;28;20324;-77
2023/10/03 01:26:48;;;;;;;;;;;;;;;17.67;46.73;100509.06;5115420;28;20403;-78
2023/10/03 01:29:15;;;;;;;;;;;;;;;17.56;46.79;100512.28;5115384;28;19911;-78
2023/10/03 01:31:41;;;;;;;;;;;;;;;17.52;45.61;100517.19;5096478;28;19919;-78
2023/10/03 01:34:06;;;;;;;;;;;;;;;17.47;46.45;100511.63;5114829;28;19912;-77
2023/10/03 01:36:32;;;;;;;;;;;;;;;17.29;47.15;100519.34;5096505;28;19995;-78
2023/10/03 01:38:57;;;;;;;;;;;;;;;17.22;46.55;100521.97;5096437;28;20350;-77
2023/10/03 01:41:22;;;;;;;;;;;;;;;17.17;46.02;100523.59;5114690;28;20002;-78
2023/10/03 01:43:48;;;;;;;;;;;;;;;17.05;46.75;100521.44;5096301;28;19982;-78
2023/10/03 01:46:13;;;;;;;;;;;;;;;17.02;46.79;100523.69;5114792;28;20376;-78
2023/10/03 01:48:39;;;;;;;;;;;;;;;16.94;47.06;100516.66;5114672;28;20400;-79
2023/10/03 01:51:05;;;;;;;;;;;;;;;16.89;47.43;100518.25;5114737;28;19968;-78
2023/10/03 01:53:30;;;;;;;;;;;;;;;16.80;46.76;100514.91;5114719;28;19969;-78
2023/10/03 01:55:56;;;;;;;;;;;;;;;16.77;46.56;100518.81;5114552;28;19912;-78
2023/10/03 01:58:24;;;;;;;;;;;;;;;16.70;46.83;100517.09;5096256;28;19912;-78
2023/10/03 02:00:50;;;;;;;;;;;;;;;16.66;47.50;100510.50;5114460;28;19916;-78
2023/10/03 02:03:16;;;;;;;;;;;;;;;16.64;47.08;100515.19;5096048;28;20029;-78
2023/10/03 02:05:42;;;;;;;;;;;;;;;16.63;46.87;100516.19;5095991;28;19978;-78
2023/10/03 02:08:13;;;;;;;;;;;;;;;16.63;46.70;100521.53;5114393;28;19919;-78
2023/10/03 02:10:39;;;;;;;;;;;;;;;16.58;47.53;100518.63;5095949;28;19923;-78
2023/10/03 02:13:11;;;;;;;;;;;;;;;16.54;46.79;100515.53;5114308;28;19911;-78
2023/10/03 02:15:38;;;;;;;;;;;;;;;16.52;47.42;100513.03;5114534;28;19933;-77
2023/10/03 02:18:05;;;;;;;;;;;;;;;16.48;47.90;100516.28;5114254;28;19912;-77
2023/10/03 02:20:31;;;;;;;;;;;;;;;16.45;47.08;100508.69;5096065;28;19912;-76
2023/10/03 02:22:57;;;;;;;;;;;;;;;16.36;47.93;100521.31;5114330;28;19969;-76
2023/10/03 02:25:22;;;;;;;;;;;;;;;16.35;47.45;100525.00;5114078;28;20321;-77
2023/10/03 02:27:49;;;;;;;;;;;;;;;16.39;47.81;100517.44;5114026;28;19916;-76
2023/10/03 02:30:19;;;;;;;;;;;;;;;16.41;46.45;100521.56;5095919;28;19929;-76
2023/10/03 02:32:44;;;;;;;;;;;;;;;16.43;47.14;100521.38;5114040;28;19965;-76
2023/10/03 02:35:10;;;;;;;;;;;;;;;16.46;46.63;100529.81;5113925;28;19907;-77
2023/10/03 02:37:37;;;;;;;;;;;;;;;16.47;46.51;100518.13;5113845;28;20392;-78
2023/10/03 02:40:04;;;;;;;;;;;;;;;16.41;47.51;100513.56;5113593;28;19912;-78
2023/10/03 02:42:30;;;;;;;;;;;;;;;16.37;47.68;100517.63;5113590;28;20336;-78
2023/10/03 02:44:58;;;;;;;;;;;;;;;16.41;46.79;100524.22;5113689;28;19912;-78
2023/10/03 02:47:23;;;;;;;;;;;;;;;16.38;47.87;100524.63;5113505;28;19912;-79
2023/10/03 02:49:49;;;;;;;;;;;;;;;16.39;47.38;100528.94;5113691;28;19912;-78
2023/10/03 02:52:15;;;;;;;;;;;;;;;16.30;47.32;100522.06;5113502;28;19951;-78
2023/10/03 02:54:40;;;;;;;;;;;;;;;16.26;47.04;100526.13;5113301;28;20405;-78
2023/10/03 02:57:05;;;;;;;;;;;;;;;16.21;48.09;100526.69;5095143;28;19926;-79
2023/10/03 02:59:31;;;;;;;;;;;;;;;16.19;47.98;100538.56;5113586;28;20274;-77
2023/10/03 03:01:56;;;;;;;;;;;;;;;16.19;48.24;100533.22;5113138;28;19916;-77
2023/10/03 03:04:23;;;;;;;;;;;;;;;16.15;48.39;100532.78;5113319;28;20273;-77
2023/10/03 03:06:50;;;;;;;;;;;;;;;16.11;47.64;100536.00;5113335;28;19916;-76
2023/10/03 03:09:23;;;;;;;;;;;;;;;16.12;48.36;100533.16;5094988;28;19912;-77
2023/10/03 03:11:48;;;;;;;;;;;;;;;16.13;48.38;100537.47;5113041;28;19951;-76
2023/10/03 03:14:14;;;;;;;;;;;;;;;16.13;48.04;100536.66;5113165;28;19919;-76
2023/10/03 03:16:40;;;;;;;;;;;;;;;16.10;48.59;100543.19;5094807;28;19912;-76
2023/10/03 03:19:05;;;;;;;;;;;;;;;16.08;48.49;100544.38;5112855;28;19937;-76
2023/10/03 03:21:33;;;;;;;;;;;;;;;16.07;48.16;100542.72;5094579;28;19916;-76
2023/10/03 03:24:00;;;;;;;;;;;;;;;16.09;48.70;100543.38;5113065;28;19920;-76
2023/10/03 03:26:36;;;;;;;;;;;;;;;16.12;48.82;100540.31;5115982;28;19980;-76
2023/10/03 03:29:11;;;;;;;;;;;;;;;16.08;48.69;100536.38;5114328;28;20013;-77
2023/10/03 03:31:42;;;;;;;;;;;;;;;16.04;48.48;100543.13;5112742;28;19907;-77
2023/10/03 03:34:08;;;;;;;;;;;;;;;16.01;48.44;100546.16;5112438;28;20315;-77
2023/10/03 03:36:38;;;;;;;;;;;;;;;16.01;48.62;100544.31;5094518;28;20038;-76
2023/10/03 03:39:12;;;;;;;;;;;;;;;16.03;48.45;100546.78;5094286;28;19908;-78
2023/10/03 03:41:39;;;;;;;;;;;;;;;15.97;48.19;100540.38;5112458;28;19918;-77
2023/10/03 03:44:11;;;;;;;;;;;;;;;15.96;48.69;100543.22;5094096;28;19963;-78
2023/10/03 03:46:37;;;;;;;;;;;;;;;15.95;48.39;100538.91;5112272;28;19969;-77
2023/10/03 03:49:04;;;;;;;;;;;;;;;15.89;48.49;100543.97;5112371;28;19912;-77
2023/10/03 03:51:30;;;;;;;;;;;;;;;15.87;48.26;100539.84;5112457;28;19991;-77
2023/10/03 03:53:55;;;;;;;;;;;;;;;15.85;48.32;100539.22;5112463;28;19951;-77
2023/10/03 03:56:21;;;;;;;;;;;;;;;15.81;49.00;100543.28;5094238;28;19919;-77
2023/10/03 03:58:48;;;;;;;;;;;;;;;15.80;48.93;100537.13;5112552;28;20439;-77
2023/10/03 04:01:19;;;;;;;;;;;;;;;15.75;48.63;100536.84;5094405;28;20315;-77
2023/10/03 04:03:45;;;;;;;;;;;;;;;15.73;49.29;100538.06;5112307;28;19931;-76
2023/10/03 04:06:11;;;;;;;;;;;;;;;15.74;48.63;100532.53;5112550;28;19918;-76
2023/10/03 04:08:36;;;;;;;;;;;;;;;15.64;49.09;100537.34;5113075;28;19911;-77
2023/10/03 04:11:04;;;;;;;;;;;;;;;15.64;48.28;100537.34;5112601;28;19912;-77
2023/10/03 04:13:35;;;;;;;;;;;;;;;15.61;49.04;100537.72;5112197;28;19912;-76
2023/10/03 04:16:00;;;;;;;;;;;;;;;15.57;48.54;100533.72;5112216;28;19912;-77
2023/10/03 04:18:26;;;;;;;;;;;;;;;15.54;48.62;100534.91;5112372;28;19919;-76
2023/10/03 04:20:53;;;;;;;;;;;;;;;15.47;50.18;100542.00;5093985;28;19916;-77
2023/10/03 04:23:19;;;;;;;;;;;;;;;15.47;49.13;100535.84;5112315;28;20301;-77
2023/10/03 04:25:44;;;;;;;;;;;;;;;15.51;48.92;100540.59;5112462;28;19922;-77
2023/10/03 04:28:11;;;;;;;;;;;;;;;15.50;49.32;100536.28;5112365;28;20379;-76
2023/10/03 04:30:39;;;;;;;;;;;;;;;15.54;48.54;100539.41;5112331;28;19943;-77
2023/10/03 04:33:04;;;;;;;;;;;;;;;15.50;48.97;100536.28;5112226;28;20388;-77
2023/10/03 04:35:29;;;;;;;;;;;;;;;15.43;48.39;100539.88;5093871;28;20006;-77
2023/10/03 04:37:56;;;;;;;;;;;;;;;15.40;49.19;100535.75;5112110;28;20380;-77
2023/10/03 04:40:27;;;;;;;;;;;;;;;15.35;49.67;100539.97;5093856;28;19912;-77
2023/10/03 04:42:53;;;;;;;;;;;;;;;15.26;48.77;100539.25;5111978;28;19923;-77
2023/10/03 04:45:19;;;;;;;;;;;;;;;15.20;48.92;100548.78;5113536;28;20006;-77
2023/10/03 04:47:46;;;;;;;;;;;;;;;15.15;50.38;100545.03;5116044;28;19916;-77
2023/10/03 04:50:12;;;;;;;;;;;;;;;15.09;50.14;100543.94;5097783;28;20003;-76
2023/10/03 04:52:38;;;;;;;;;;;;;;;15.08;50.13;100542.28;5097804;28;20007;-76
2023/10/03 04:55:04;;;;;;;;;;;;;;;15.11;49.57;100541.91;5097989;28;19950;-76
2023/10/03 04:57:29;;;;;;;;;;;;;;;15.18;49.72;100550.00;5114314;28;19916;-77
2023/10/03 04:59:59;;;;;;;;;;;;;;;15.19;49.71;100548.97;5095889;28;19922;-79
2023/10/03 05:02:24;;;;;;;;;;;;;;;15.25;49.17;100549.06;5097546;28;19920;-76
2023/10/03 05:04:49;;;;;;;;;;;;;;;15.28;48.80;100555.84;5110210;28;19920;-77
2023/10/03 05:07:15;;;;;;;;;;;;;;;15.30;49.31;100550.34;5077152;28;19942;-77
2023/10/03 05:09:40;;;;;;;;;;;;;;;15.23;49.29;100552.94;5096364;28;19916;-78
2023/10/03 05:12:05;;;;;;;;;;;;;;;15.27;49.45;100549.72;5095449;28;19912;-77
2023/10/03 05:14:31;;;;;;;;;;;;;;;15.34;48.71;100551.63;5096389;28;19916;-78
2023/10/03 05:17:00;;;;;;;;;;;;;;;15.42;48.63;100549.69;5095323;28;19912;-77
2023/10/03 05:19:25;;;;;;;;;;;;;;;15.44;49.08;100555.66;5098462;28;19973;-75
2023/10/03 05:21:50;;;;;;;;;;;;;;;15.45;49.14;100562.63;5096321;28;19912;-76
2023/10/03 05:24:16;;;;;;;;;;;;;;;15.44;49.89;100561.00;5095655;28;20007;-78
2023/10/03 05:26:41;;;;;;;;;;;;;;;15.45;49.29;100567.97;5101099;28;20376;-78
2023/10/03 05:29:07;;;;;;;;;;;;;;;15.35;49.00;100566.59;5111397;28;20368;-78
2023/10/03 05:31:34;;;;;;;;;;;;;;;15.32;48.99;100572.28;5114916;28;19962;-77
2023/10/03 05:33:59;;;;;;;;;;;;;;;15.38;50.22;100580.34;5115106;28;19911;-77
2023/10/03 05:36:25;;;;;;;;;;;;;;;15.50;49.47;100578.06;5087159;28;20011;-77
2023/10/03 05:38:50;;;;;;;;;;;;;;;15.61;48.81;100576.81;5080181;28;19917;-76
2023/10/03 05:41:21;;;;;;;;;;;;;;;15.70;48.68;100581.03;5097379;28;20018;-77
2023/10/03 05:43:47;;;;;;;;;;;;;;;15.78;49.57;100581.75;5094819;28;19916;-77
2023/10/03 05:46:12;;;;;;;;;;;;;;;15.83;48.32;100584.69;5078609;28;19935;-78
2023/10/03 05:48:37;;;;;;;;;;;;;;;15.87;48.35;100588.63;5109007;28;20020;-77
2023/10/03 05:51:03;;;;;;;;;;;;;;;15.92;48.94;100588.06;5096458;28;20381;-77
2023/10/03 05:53:30;;;;;;;;;;;;;;;16.00;48.08;100589.78;5109004;28;20049;-77
2023/10/03 05:55:55;;;;;;;;;;;;;;;16.05;48.04;100588.22;5098757;28;19923;-77
2023/10/03 05:58:21;;;;;;;;;;;;;;;16.09;48.19;100592.16;5098772;28;19920;-77
2023/10/03 06:00:46;;;;;;;;;;;;;;;16.19;48.39;100594.50;5095181;28;19916;-77
2023/10/03 06:03:11;;;;;;;;;;;;;;;16.22;48.37;100591.47;5075771;28;20381;-77
2023/10/03 06:05:37;;;;;;;;;;;;;;;16.32;48.45;100599.97;5094862;28;19916;-76
2023/10/03 06:08:02;;;;;;;;;;;;;;;16.39;48.75;100600.91;5091199;28;19972;-79
2023/10/03 06:10:29;;;;;;;;;;;;;;;16.46;48.18;100603.63;5099218;28;20011;-78
2023/10/03 06:12:54;;;;;;;;;;;;;;;16.55;47.85;100612.31;5096922;28;19969;-78
2023/10/03 06:15:20;;;;;;;;;;;;;;;16.62;48.73;100606.03;5100838;28;19915;-78
2023/10/03 06:17:45;;;;;;;;;;;;;;;16.73;48.61;100612.72;5114251;28;19934;-77
2023/10/03 06:20:14;;;;;;;;;;;;;;;16.81;48.48;100621.41;5113983;28;19947;-77
2023/10/03 06:22:39;;;;;;;;;;;;;;;16.90;47.69;100618.59;5095708;28;19923;-77
2023/10/03 06:25:05;;;;;;;;;;;;;;;16.95;48.54;100613.53;5113793;28;19920;-78
2023/10/03 06:27:31;;;;;;;;;;;;;;;16.98;47.73;100621.13;5113556;28;19922;-78
2023/10/03 06:29:56;;;;;;;;;;;;;;;17.08;47.77;100622.44;5113554;28;20316;-78
2023/10/03 06:32:22;;;;;;;;;;;;;;;17.16;47.87;100624.19;5114152;28;20370;-77
2023/10/03 06:34:47;;;;;;;;;;;;;;;17.25;48.83;100620.34;5114258;28;19924;-78
2023/10/03 06:37:12;;;;;;;;;;;;;;;17.38;47.59;100624.94;5113957;28;20049;-78
2023/10/03 06:39:37;;;;;;;;;;;;;;;17.52;47.52;100631.19;5113771;28;19912;-78
2023/10/03 06:42:03;;;;;;;;;;;;;;;17.68;46.91;100626.38;5113900;28;20392;-76
2023/10/03 06:44:28;;;;;;;;;;;;;;;17.84;46.98;100624.41;5113742;28;19915;-78
2023/10/03 06:46:53;;;;;;;;;;;;;;;17.99;46.77;100625.09;5095487;28;19912;-77
2023/10/03 06:49:22;;;;;;;;;;;;;;;18.13;46.69;100629.47;5095496;28;19918;-77
2023/10/03 06:51:49;;;;;;;;;;;;;;;18.26;46.35;100626.81;5094011;28;19912;-77
2023/10/03 06:54:16;;;;;;;;;;;;;;;18.38;46.86;100625.22;5096928;28;19912;-77
2023/10/03 06:56:41;;;;;;;;;;;;;;;18.48;46.37;100627.50;5109659;28;20428;-78
2023/10/03 06:59:10;;;;;;;;;;;;;;;18.58;45.97;100624.41;5113201;28;19998;-77
2023/10/03 07:01:36;;;;;;;;;;;;;;;18.66;45.50;100626.97;5091544;28;19916;-77
2023/10/03 07:04:02;;;;;;;;;;;;;;;18.75;45.46;100623.06;5113089;28;19931;-78
2023/10/03 07:06:28;;;;;;;;;;;;;;;18.82;45.02;100618.53;5108410;28;20412;-78
2023/10/03 07:08:53;;;;;;;;;;;;;;;18.88;44.87;100619.56;5112495;28;19915;-76
2023/10/03 07:11:18;;;;;;;;;;;;;;;18.93;44.44;100627.78;5112965;28;20006;-77
2023/10/03 07:13:44;;;;;;;;;;;;;;;18.98;44.53;100619.97;5105830;28;19995;-78
2023/10/03 07:16:11;;;;;;;;;;;;;;;19.08;44.12;100625.72;5093485;28;19924;-75
2023/10/03 07:18:36;;;;;;;;;;;;;;;19.14;44.09;100624.06;5092575;28;20400;-77
2023/10/03 07:21:03;;;;;;;;;;;;;;;19.22;44.08;100621.19;5074496;28;19919;-78
2023/10/03 07:23:28;;;;;;;;;;;;;;;19.27;43.87;100624.88;5100209;28;19924;-77
2023/10/03 07:25:54;;;;;;;;;;;;;;;19.31;43.77;100628.78;5092622;28;19912;-77
2023/10/03 07:28:19;;;;;;;;;;;;;;;19.37;43.42;100627.16;5089529;28;20415;-77
2023/10/03 07:30:44;;;;;;;;;;;;;;;19.46;43.34;100633.13;5099217;28;19920;-77
2023/10/03 07:33:11;;;;;;;;;;;;;;;19.52;43.12;100630.47;5111999;28;20420;-77
2023/10/03 07:35:41;;;;;;;;;;;;;;;19.60;43.21;100627.53;5097537;28;19962;-77
2023/10/03 07:38:06;;;;;;;;;;;;;;;19.65;42.63;100633.09;5082546;28;19920;-77
2023/10/03 07:40:31;;;;;;;;;;;;;;;19.74;42.49;100630.19;5111064;28;19916;-77
2023/10/03 07:42:56;;;;;;;;;;;;;;;19.78;42.22;100632.22;5104932;28;19988;-78
2023/10/03 07:45:22;;;;;;;;;;;;;;;19.84;41.86;100633.25;5074923;28;19920;-77
2023/10/03 07:47:50;;;;;;;;;;;;;;;19.89;41.79;100628.06;5080905;28;19986;-78
2023/10/03 07:50:15;;;;;;;;;;;;;;;20.00;41.78;100619.34;5099911;28;20305;-76
2023/10/03 07:52:43;;;;;;;;;;;;;;;20.12;42.10;100625.72;5090178;28;20235;-77
2023/10/03 07:55:09;;;;;;;;;;;;;;;20.19;42.16;100628.38;5090026;28;19938;-79
2023/10/03 07:57:37;;;;;;;;;;;;;;;20.26;41.60;100623.78;5090127;28;20356;-77
2023/10/03 08:00:05;;;;;;;;;;;;;;;20.35;41.68;100625.19;5080225;28;19916;-76
2023/10/03 08:02:32;;;;;;;;;;;;;;;20.37;41.25;100628.47;5098628;28;19920;-76
2023/10/03 08:05:00;;;;;;;;;;;;;;;20.47;41.41;100628.03;5101902;28;19959;-76
2023/10/03 08:07:26;;;;;;;;;;;;;;;20.50;41.05;100625.72;5101643;28;19915;-78
2023/10/03 08:09:51;;;;;;;;;;;;;;;20.53;41.03;100632.53;5098956;28;19923;-78
2023/10/03 08:12:25;;;;;;;;;;;;;;;20.59;41.04;100626.28;5098727;28;19977;-78
2023/10/03 08:14:54;;;;;;;;;;;;;;;20.67;40.84;100615.28;5100815;28;19915;-77
2023/10/03 08:17:19;;;;;;;;;;;;;;;20.71;40.08;100616.50;5109683;28;20033;-77
2023/10/03 08:19:45;;;;;;;;;;;;;;;20.83;40.56;100619.34;5111493;28;19924;-79
2023/10/03 08:22:12;;;;;;;;;;;;;;;20.95;40.28;100620.25;5109028;28;20396;-78
2023/10/03 08:24:43;;;;;;;;;;;;;;;21.06;39.83;100618.72;5113546;28;19927;-78
2023/10/03 08:27:17;;;;;;;;;;;;;;;21.20;39.93;100614.88;5116919;28;19916;-77
2023/10/03 08:29:43;;;;;;;;;;;;;;;21.30;39.23;100617.06;5103209;28;19930;-77
2023/10/03 08:32:09;;;;;;;;;;;;;;;21.30;38.89;100609.84;5096185;28;19924;-78
2023/10/03 08:34:43;;;;;;;;;;;;;;;21.30;38.34;100607.16;5104615;28;20006;-76
2023/10/03 08:37:09;;;;;;;;;;;;;;;21.34;38.66;100610.22;5098154;28;19915;-78
2023/10/03 08:39:34;;;;;;;;;;;;;;;21.40;39.05;100607.47;5115938;28;20457;-78
2023/10/03 08:42:11;;;;;;;;;;;;;;;21.50;38.93;100613.13;5115949;28;19912;-77
2023/10/03 08:44:41;;;;;;;;;;;;;;;21.56;38.62;100606.06;5110937;28;19923;-78
2023/10/03 08:47:09;;;;;;;;;;;;;;;21.67;38.72;100612.56;5105448;28;19919;-78
2023/10/03 08:49:38;;;;;;;;;;;;;;;21.80;38.24;100613.22;5115808;28;19916;-78
2023/10/03 08:52:04;;;;;;;;;;;;;;;21.94;37.96;100607.69;5115576;28;19912;-78
2023/10/03 08:54:36;;;;;;;;;;;;;;;22.05;37.41;100606.94;5114722;28;19916;-79
2023/10/03 08:57:02;;;;;;;;;;;;;;;22.21;37.93;100606.31;5115594;28;19912;-78
2023/10/03 08:59:30;;;;;;;;;;;;;;;22.34;37.46;100613.41;5115737;28;19911;-78
2023/10/03 09:01:58;;;;;;;;;;;;;;;22.49;38.22;100603.84;5115433;28;19972;-78
2023/10/03 09:04:24;;;;;;;;;;;;;;;22.55;37.57;100604.81;5090730;28;19919;-79
2023/10/03 09:06:50;;;;;;;;;;;;;;;22.64;37.65;100595.34;5077149;28;19969;-78
2023/10/03 09:09:16;;;;;;;;;;;;;;;22.70;35.63;100590.91;5077984;28;20328;-79
2023/10/03 09:11:51;;;;;;;;;;;;;;;22.77;36.05;100595.13;5106380;28;19923;-78
2023/10/03 09:14:22;;;;;;;;;;;;;;;22.89;35.22;100586.28;5112063;28;19967;-79
2023/10/03 09:16:59;;;;;;;;;;;;;;;23.03;36.65;100593.88;5095994;28;19916;-78
2023/10/03 09:19:41;;;;;;;;;;;;;;;23.20;35.98;100591.34;5101673;28;19916;-79
2023/10/03 09:22:08;;;;;;;;;;;;;;;23.36;35.68;100587.91;5115468;28;19911;-77
2023/10/03 09:24:43;;;;;;;;;;;;;;;23.53;35.82;100590.69;5112899;28;20019;-77
2023/10/03 09:27:09;;;;;;;;;;;;;;;23.60;34.97;100593.28;5077017;28;19916;-76
2023/10/03 09:29:34;;;;;;;;;;;;;;;23.64;34.13;100579.09;5097714;28;19915;-77
2023/10/03 09:32:13;;;;;;;;;;;;;;;23.71;34.30;100579.78;5108328;28;19923;-79
2023/10/03 09:34:40;;;;;;;;;;;;;;;23.81;35.38;100587.28;5081337;28;19931;-78
2023/10/03 09:37:05;;;;;;;;;;;;;;;23.93;34.62;100574.56;5114987;28;20430;-77
2023/10/03 09:39:39;;;;;;;;;;;;;;;24.05;34.24;100575.34;5115253;28;19948;-76
2023/10/03 09:42:07;;;;;;;;;;;;;;;24.19;34.89;100575.03;5108723;28;19916;-77
2023/10/03 09:44:33;;;;;;;;;;;;;;;24.28;33.75;100573.63;5108954;28;19926;-79
2023/10/03 09:47:06;;;;;;;;;;;;;;;24.45;34.63;100563.66;5104122;28;19916;-78
2023/10/03 09:49:36;;;;;;;;;;;;;;;24.64;33.72;100572.38;5094735;28;19916;-76
2023/10/03 09:52:09;;;;;;;;;;;;;;;24.81;33.23;100566.97;5098048;28;19916;-76
2023/10/03 09:54:35;;;;;;;;;;;;;;;24.80;33.08;100559.94;5090827;28;19927;-76
2023/10/03 09:57:01;;;;;;;;;;;;;;;24.77;31.27;100563.94;5094038;28;19912;-77
2023/10/03 09:59:27;;;;;;;;;;;;;;;24.84;34.04;100555.66;5093929;28;19947;-79
2023/10/03 10:01:55;;;;;;;;;;;;;;;24.92;33.03;100557.94;5084135;28;19974;-76
2023/10/03 10:04:22;;;;;;;;;;;;;;;25.02;31.75;100558.13;5062189;28;19917;-77
2023/10/03 10:06:51;;;;;;;;;;;;;;;25.20;32.09;100552.44;5068358;28;19916;-78
2023/10/03 10:09:28;;;;;;;;;;;;;;;25.39;33.22;100547.56;5064795;28;19913;-78
2023/10/03 10:12:12;;;;;;;;;;;;;;;25.32;32.70;100552.34;5053461;28;20378;-77
2023/10/03 10:17:45;;;;;;;;;;;;;;;25.49;30.54;100541.47;5054715;28;20004;-78
2023/10/03 10:20:27;;;;;;;;;;;;;;;25.56;31.55;100539.41;5070730;28;19974;-78
2023/10/03 10:23:02;;;;;;;;;;;;;;;25.68;29.85;100533.88;5067164;28;19928;-78
2023/10/03 10:25:37;;;;;;;;;;;;;;;25.79;31.22;100525.63;5074553;28;19916;-78
2023/10/03 10:28:07;;;;;;;;;;;;;;;25.94;29.96;100525.78;5071497;28;19917;-78
2023/10/03 10:30:32;;;;;;;;;;;;;;;26.02;30.74;100516.41;5070065;28;19999;-78
2023/10/03 10:33:18;;;;;;;;;;;;;;;26.17;30.56;100511.13;5071139;28;20086;-78
2023/10/03 10:35:50;;;;;;;;;;;;;;;26.38;28.68;100509.44;5052814;28;19913;-77
2023/10/03 10:38:15;;;;;;;;;;;;;;;26.41;30.89;100503.50;5055006;28;20003;-78
2023/10/03 10:41:00;;;;;;;;;;;;;;;26.43;30.99;100506.78;5072926;28;20011;-78
2023/10/03 10:43:25;;;;;;;;;;;;;;;26.54;28.68;100500.34;5069430;28;19925;-77
2023/10/03 10:46:10;;;;;;;;;;;;;;;26.67;29.54;100495.56;5072525;28;19912;-77
2023/10/03 10:48:43;;;;;;;;;;;;;;;26.78;29.86;100497.28;5071880;28;19994;-77
2023/10/03 10:51:10;;;;;;;;;;;;;;;26.88;29.16;100486.50;5070533;28;20090;-77
2023/10/03 10:53:44;;;;;;;;;;;;;;;26.92;29.09;100484.91;5070915;28;19912;-78
2023/10/03 10:56:11;;;;;;;;;;;;;;;26.91;28.77;100496.81;5072794;28;20355;-77
2023/10/03 10:58:50;;;;;;;;;;;;;;;26.98;29.43;100477.66;5072820;28;20395;-77
2023/10/03 11:01:16;;;;;;;;;;;;;;;27.08;28.71;100481.22;5071162;28;20019;-78
2023/10/03 11:03:43;;;;;;;;;;;;;;;27.17;28.94;100474.22;5067869;28;20424;-77
2023/10/03 11:06:18;;;;;;;;;;;;;;;27.31;28.63;100474.53;5068222;28;20007;-77
2023/10/03 11:08:50;;;;;;;;;;;;;;;27.42;28.35;100473.50;5069346;28;19916;-77
2023/10/03 11:11:16;;;;;;;;;;;;;;;27.44;27.80;100470.50;5075149;28;19923;-77
2023/10/03 11:13:46;;;;;;;;;;;;;;;27.58;27.14;100470.84;5070857;28;20312;-78
2023/10/03 11:16:11;;;;;;;;;;;;;;;27.57;27.96;100464.59;5071541;28;19943;-77
2023/10/03 11:18:37;;;;;;;;;;;;;;;27.60;29.89;100463.25;5070796;28;19924;-77
2023/10/03 11:21:08;;;;;;;;;;;;;;;27.64;27.83;100454.34;5069294;28;19917;-77
2023/10/03 11:23:34;;;;;;;;;;;;;;;27.67;27.60;100456.50;5071025;28;19942;-77
2023/10/03 11:26:00;;;;;;;;;;;;;;;27.68;27.95;100450.00;5070218;28;19916;-77
2023/10/03 11:28:29;;;;;;;;;;;;;;;27.68;26.80;100447.28;5070861;28;20308;-77
2023/10/03 11:31:04;;;;;;;;;;;;;;;27.58;27.98;100449.13;5072038;28;19935;-77
2023/10/03 11:33:42;;;;;;;;;;;;;;;27.56;27.74;100441.28;5072118;28;20411;-77
2023/10/03 11:36:07;;;;;;;;;;;;;;;27.43;26.93;100441.75;5071065;28;19908;-77
2023/10/03 11:38:43;;;;;;;;;;;;;;;27.28;27.13;100428.16;5071157;28;20015;-76
2023/10/03 11:41:08;;;;;;;;;;;;;;;27.18;28.96;100432.47;5071170;28;20296;-77
2023/10/03 11:43:42;;;;;;;;;;;;;;;27.08;27.70;100427.00;5075944;28;19916;-77
2023/10/03 11:46:10;;;;;;;;;;;;;;;26.89;26.57;100428.53;5074364;28;20297;-78
2023/10/03 11:48:36;;;;;;;;;;;;;;;26.76;28.08;100418.16;5072974;28;20400;-78
2023/10/03 11:51:01;;;;;;;;;;;;;;;26.69;28.46;100422.97;5063606;28;19916;-78
2023/10/03 11:53:26;;;;;;;;;;;;;;;26.57;28.27;100418.56;5077297;28;19912;-79
2023/10/03 11:55:52;;;;;;;;;;;;;;;26.34;27.51;100418.97;5075241;28;19913;-78
2023/10/03 11:58:18;;;;;;;;;;;;;;;26.20;28.96;100415.88;5076240;28;19912;-78
2023/10/03 12:00:44;;;;;;;;;;;;;;;26.09;29.67;100408.75;5073225;28;19983;-78
2023/10/03 12:03:09;;;;;;;;;;;;;;;25.97;28.71;100403.50;5069544;28;19924;-77
2023/10/03 12:05:37;;;;;;;;;;;;;;;25.96;30.10;100404.56;5071265;28;20322;-77
2023/10/03 12:08:04;;;;;;;;;;;;;;;25.88;29.73;100407.75;5070831;28;19920;-77
2023/10/03 12:10:31;;;;;;;;;;;;;;;25.85;30.48;100405.56;5060649;28;20387;-78
2023/10/03 12:12:57;;;;;;;;;;;;;;;25.76;28.60;100398.97;5071876;28;19912;-78
2023/10/03 12:15:23;;;;;;;;;;;;;;;25.68;30.17;100394.03;5071004;28;19999;-78
2023/10/03 12:17:49;;;;;;;;;;;;;;;25.65;29.51;100383.72;5071471;28;19947;-78
2023/10/03 12:20:16;;;;;;;;;;;;;;;25.60;29.99;100386.38;5071123;28;20003;-79
2023/10/03 12:22:43;;;;;;;;;;;;;;;25.54;29.36;100390.91;5071172;28;19919;-78
2023/10/03 12:25:12;;;;;;;;;;;;;;;25.50;29.09;100387.09;5071356;28;19913;-77
2023/10/03 12:27:38;;;;;;;;;;;;;;;25.43;29.51;100382.97;5069754;28;20394;-77
2023/10/03 12:30:04;;;;;;;;;;;;;;;25.40;30.35;100372.66;5070014;28;19924;-78
2023/10/03 12:32:34;;;;;;;;;;;;;;;25.37;30.92;100376.69;5069705;28;19920;-78
2023/10/03 12:34:59;;;;;;;;;;;;;;;25.28;29.04;100381.72;5070973;28;20020;-77
2023/10/03 12:37:25;;;;;;;;;;;;;;;25.25;30.27;100374.09;5071523;28;19913;-77
2023/10/03 12:39:50;;;;;;;;;;;;;;;25.20;29.66;100370.53;5070553;28;19969;-77
2023/10/03 12:42:16;;;;;;;;;;;;;;;25.20;30.42;100365.94;5068897;28;20326;-77